sensor_id;sensor_type;location;lat;lon;timestamp;temperature;humidity
4308;DHT22;2167;53.448;9.984;2022-09-12T00:01:15;13.90;29.30
4308;DHT22;2167;53.448;9.984;2022-09-12T00:03:41;13.80;27.40
4308;DHT22;2167;53.448;9.984;2022-09-12T00:06:10;13.70;27.80
4308;DHT22;2167;53.448;9.984;2022-09-12T00:08:36;13.70;28.60
4308;DHT22;2167;53.448;9.984;2022-09-12T00:11:07;13.60;29.30
4308;DHT22;2167;53.448;9.984;2022-09-12T00:13:33;13.50;30.00
4308;DHT22;2167;53.448;9.984;2022-09-12T00:15:59;13.50;30.00
4308;DHT22;2167;53.448;9.984;2022-09-12T00:18:25;13.50;30.50
4308;DHT22;2167;53.448;9.984;2022-09-12T00:20:50;13.40;30.80
4308;DHT22;2167;53.448;9.984;2022-09-12T00:23:16;13.40;31.10
4308;DHT22;2167;53.448;9.984;2022-09-12T00:25:43;13.30;31.40
4308;DHT22;2167;53.448;9.984;2022-09-12T00:28:09;13.30;31.70
4308;DHT22;2167;53.448;9.984;2022-09-12T00:30:39;13.30;32.50
4308;DHT22;2167;53.448;9.984;2022-09-12T00:33:05;13.30;31.40
4308;DHT22;2167;53.448;9.984;2022-09-12T00:35:30;13.30;30.70
4308;DHT22;2167;53.448;9.984;2022-09-12T00:37:56;13.20;30.50
4308;DHT22;2167;53.448;9.984;2022-09-12T00:40:21;13.20;31.00
4308;DHT22;2167;53.448;9.984;2022-09-12T00:42:47;13.20;30.70
4308;DHT22;2167;53.448;9.984;2022-09-12T00:45:22;13.20;30.50
4308;DHT22;2167;53.448;9.984;2022-09-12T00:47:48;13.10;30.90
4308;DHT22;2167;53.448;9.984;2022-09-12T00:50:15;13.10;31.00
4308;DHT22;2167;53.448;9.984;2022-09-12T00:52:51;13.00;32.00
4308;DHT22;2167;53.448;9.984;2022-09-12T00:55:24;13.00;32.30
4308;DHT22;2167;53.448;9.984;2022-09-12T00:58:10;13.00;32.40
4308;DHT22;2167;53.448;9.984;2022-09-12T01:00:37;12.90;32.60
4308;DHT22;2167;53.448;9.984;2022-09-12T01:03:06;12.90;33.40
4308;DHT22;2167;53.448;9.984;2022-09-12T01:05:34;12.90;34.10
4308;DHT22;2167;53.448;9.984;2022-09-12T01:08:02;13.00;33.10
4308;DHT22;2167;53.448;9.984;2022-09-12T01:10:28;12.90;32.20
4308;DHT22;2167;53.448;9.984;2022-09-12T01:12:54;12.90;31.30
4308;DHT22;2167;53.448;9.984;2022-09-12T01:15:20;12.90;30.90
4308;DHT22;2167;53.448;9.984;2022-09-12T01:18:09;12.80;31.00
4308;DHT22;2167;53.448;9.984;2022-09-12T01:21:01;12.80;31.30
4308;DHT22;2167;53.448;9.984;2022-09-12T01:32:18;12.70;31.30
4308;DHT22;2167;53.448;9.984;2022-09-12T01:35:02;12.70;30.90
4308;DHT22;2167;53.448;9.984;2022-09-12T01:37:36;12.70;30.00
4308;DHT22;2167;53.448;9.984;2022-09-12T01:40:12;12.60;30.20
4308;DHT22;2167;53.448;9.984;2022-09-12T01:45:39;12.60;30.40
4308;DHT22;2167;53.448;9.984;2022-09-12T01:48:18;12.60;30.70
4308;DHT22;2167;53.448;9.984;2022-09-12T01:53:26;12.60;31.70
4308;DHT22;2167;53.448;9.984;2022-09-12T01:56:06;12.60;30.60
4308;DHT22;2167;53.448;9.984;2022-09-12T02:01:09;12.60;28.30
4308;DHT22;2167;53.448;9.984;2022-09-12T02:06:10;12.60;28.30
4308;DHT22;2167;53.448;9.984;2022-09-12T02:08:46;12.50;28.50
4308;DHT22;2167;53.448;9.984;2022-09-12T02:11:14;12.50;28.90
4308;DHT22;2167;53.448;9.984;2022-09-12T02:13:58;12.50;29.30
4308;DHT22;2167;53.448;9.984;2022-09-12T02:16:33;12.50;28.90
4308;DHT22;2167;53.448;9.984;2022-09-12T02:19:07;12.50;29.10
4308;DHT22;2167;53.448;9.984;2022-09-12T02:21:37;12.50;29.10
4308;DHT22;2167;53.448;9.984;2022-09-12T02:24:07;12.50;28.50
4308;DHT22;2167;53.448;9.984;2022-09-12T02:26:37;12.50;27.80
4308;DHT22;2167;53.448;9.984;2022-09-12T02:29:05;12.50;27.50
4308;DHT22;2167;53.448;9.984;2022-09-12T02:37:24;12.40;26.70
4308;DHT22;2167;53.448;9.984;2022-09-12T02:39:42;12.40;27.00
4308;DHT22;2167;53.448;9.984;2022-09-12T02:42:08;12.40;27.10
4308;DHT22;2167;53.448;9.984;2022-09-12T02:44:34;12.40;27.70
4308;DHT22;2167;53.448;9.984;2022-09-12T02:47:05;12.40;28.20
4308;DHT22;2167;53.448;9.984;2022-09-12T02:49:32;12.40;27.60
4308;DHT22;2167;53.448;9.984;2022-09-12T02:51:59;12.30;27.40
4308;DHT22;2167;53.448;9.984;2022-09-12T02:54:25;12.30;27.60
4308;DHT22;2167;53.448;9.984;2022-09-12T02:56:51;12.30;28.40
4308;DHT22;2167;53.448;9.984;2022-09-12T02:59:18;12.20;29.10
4308;DHT22;2167;53.448;9.984;2022-09-12T03:02:33;12.20;30.30
4308;DHT22;2167;53.448;9.984;2022-09-12T03:13:06;12.00;29.50
4308;DHT22;2167;53.448;9.984;2022-09-12T03:16:03;12.00;30.90
4308;DHT22;2167;53.448;9.984;2022-09-12T03:24:31;11.90;30.00
4308;DHT22;2167;53.448;9.984;2022-09-12T03:29:29;11.90;30.20
4308;DHT22;2167;53.448;9.984;2022-09-12T03:31:57;11.90;30.60
4308;DHT22;2167;53.448;9.984;2022-09-12T03:34:24;11.80;31.40
4308;DHT22;2167;53.448;9.984;2022-09-12T03:36:51;11.80;32.00
4308;DHT22;2167;53.448;9.984;2022-09-12T03:39:19;11.80;32.60
4308;DHT22;2167;53.448;9.984;2022-09-12T03:41:45;11.90;33.30
4308;DHT22;2167;53.448;9.984;2022-09-12T03:44:10;11.90;33.80
4308;DHT22;2167;53.448;9.984;2022-09-12T03:46:36;11.90;32.10
4308;DHT22;2167;53.448;9.984;2022-09-12T03:49:02;11.80;30.00
4308;DHT22;2167;53.448;9.984;2022-09-12T03:51:27;11.80;29.00
4308;DHT22;2167;53.448;9.984;2022-09-12T03:53:53;11.80;28.70
4308;DHT22;2167;53.448;9.984;2022-09-12T03:56:19;11.80;28.40
4308;DHT22;2167;53.448;9.984;2022-09-12T03:58:45;11.80;28.60
4308;DHT22;2167;53.448;9.984;2022-09-12T04:01:17;11.80;28.90
4308;DHT22;2167;53.448;9.984;2022-09-12T04:03:45;11.80;29.30
4308;DHT22;2167;53.448;9.984;2022-09-12T04:06:13;11.80;29.30
4308;DHT22;2167;53.448;9.984;2022-09-12T04:08:40;11.70;29.10
4308;DHT22;2167;53.448;9.984;2022-09-12T04:11:11;11.70;29.30
4308;DHT22;2167;53.448;9.984;2022-09-12T04:13:38;11.70;29.50
4308;DHT22;2167;53.448;9.984;2022-09-12T04:16:04;11.70;30.00
4308;DHT22;2167;53.448;9.984;2022-09-12T04:18:30;11.80;29.70
4308;DHT22;2167;53.448;9.984;2022-09-12T04:20:56;11.70;28.90
4308;DHT22;2167;53.448;9.984;2022-09-12T04:23:22;11.70;28.70
4308;DHT22;2167;53.448;9.984;2022-09-12T04:25:55;11.70;29.10
4308;DHT22;2167;53.448;9.984;2022-09-12T04:28:21;11.70;28.90
4308;DHT22;2167;53.448;9.984;2022-09-12T04:30:46;11.70;28.50
4308;DHT22;2167;53.448;9.984;2022-09-12T04:33:12;11.70;28.70
4308;DHT22;2167;53.448;9.984;2022-09-12T04:35:38;11.70;28.90
4308;DHT22;2167;53.448;9.984;2022-09-12T04:38:04;11.60;28.60
4308;DHT22;2167;53.448;9.984;2022-09-12T04:40:30;11.60;28.40
4308;DHT22;2167;53.448;9.984;2022-09-12T04:42:56;11.60;27.90
4308;DHT22;2167;53.448;9.984;2022-09-12T04:45:21;11.60;28.60
4308;DHT22;2167;53.448;9.984;2022-09-12T04:47:47;11.60;28.30
4308;DHT22;2167;53.448;9.984;2022-09-12T04:50:13;11.50;28.20
4308;DHT22;2167;53.448;9.984;2022-09-12T04:52:42;11.60;28.40
4308;DHT22;2167;53.448;9.984;2022-09-12T04:55:08;11.60;28.80
4308;DHT22;2167;53.448;9.984;2022-09-12T04:57:34;11.50;29.40
4308;DHT22;2167;53.448;9.984;2022-09-12T05:00:02;11.50;29.70
4308;DHT22;2167;53.448;9.984;2022-09-12T05:02:32;11.50;29.90
4308;DHT22;2167;53.448;9.984;2022-09-12T05:04:58;11.50;30.30
4308;DHT22;2167;53.448;9.984;2022-09-12T05:07:23;11.50;30.90
4308;DHT22;2167;53.448;9.984;2022-09-12T05:09:49;11.60;30.90
4308;DHT22;2167;53.448;9.984;2022-09-12T05:12:14;11.50;30.70
4308;DHT22;2167;53.448;9.984;2022-09-12T05:14:40;11.50;30.00
4308;DHT22;2167;53.448;9.984;2022-09-12T05:17:06;11.60;29.70
4308;DHT22;2167;53.448;9.984;2022-09-12T05:19:32;11.60;29.40
4308;DHT22;2167;53.448;9.984;2022-09-12T05:21:58;11.60;29.50
4308;DHT22;2167;53.448;9.984;2022-09-12T05:24:24;11.60;29.90
4308;DHT22;2167;53.448;9.984;2022-09-12T05:26:50;11.60;30.60
4308;DHT22;2167;53.448;9.984;2022-09-12T05:29:16;11.50;32.00
4308;DHT22;2167;53.448;9.984;2022-09-12T05:31:41;11.50;32.50
4308;DHT22;2167;53.448;9.984;2022-09-12T05:34:08;11.60;32.70
4308;DHT22;2167;53.448;9.984;2022-09-12T05:36:35;11.60;32.40
4308;DHT22;2167;53.448;9.984;2022-09-12T05:39:05;11.60;31.70
4308;DHT22;2167;53.448;9.984;2022-09-12T05:41:31;11.60;31.00
4308;DHT22;2167;53.448;9.984;2022-09-12T05:44:03;11.60;31.10
4308;DHT22;2167;53.448;9.984;2022-09-12T05:46:34;11.60;31.80
4308;DHT22;2167;53.448;9.984;2022-09-12T05:49:05;11.60;32.30
4308;DHT22;2167;53.448;9.984;2022-09-12T05:51:33;11.70;33.20
4308;DHT22;2167;53.448;9.984;2022-09-12T05:54:00;11.80;34.00
4308;DHT22;2167;53.448;9.984;2022-09-12T05:56:29;11.80;34.90
4308;DHT22;2167;53.448;9.984;2022-09-12T05:59:03;11.90;35.60
4308;DHT22;2167;53.448;9.984;2022-09-12T06:01:31;12.00;36.60
4308;DHT22;2167;53.448;9.984;2022-09-12T06:03:59;12.10;37.20
4308;DHT22;2167;53.448;9.984;2022-09-12T06:06:26;12.10;37.60
4308;DHT22;2167;53.448;9.984;2022-09-12T06:08:55;12.20;38.10
4308;DHT22;2167;53.448;9.984;2022-09-12T06:11:23;12.30;38.50
4308;DHT22;2167;53.448;9.984;2022-09-12T06:13:51;12.40;38.90
4308;DHT22;2167;53.448;9.984;2022-09-12T06:16:18;12.50;39.10
4308;DHT22;2167;53.448;9.984;2022-09-12T06:19:12;12.60;39.40
4308;DHT22;2167;53.448;9.984;2022-09-12T06:25:27;12.80;39.80
4308;DHT22;2167;53.448;9.984;2022-09-12T06:31:20;13.00;40.50
4308;DHT22;2167;53.448;9.984;2022-09-12T06:33:48;13.10;40.80
4308;DHT22;2167;53.448;9.984;2022-09-12T06:36:17;13.20;40.90
4308;DHT22;2167;53.448;9.984;2022-09-12T06:38:43;13.20;41.10
4308;DHT22;2167;53.448;9.984;2022-09-12T06:41:14;13.30;41.40
4308;DHT22;2167;53.448;9.984;2022-09-12T06:43:41;13.40;41.40
4308;DHT22;2167;53.448;9.984;2022-09-12T06:46:08;13.50;41.90
4308;DHT22;2167;53.448;9.984;2022-09-12T06:48:34;13.60;42.20
4308;DHT22;2167;53.448;9.984;2022-09-12T06:51:05;13.80;42.70
4308;DHT22;2167;53.448;9.984;2022-09-12T06:53:34;14.00;43.00
4308;DHT22;2167;53.448;9.984;2022-09-12T06:56:05;14.10;42.60
4308;DHT22;2167;53.448;9.984;2022-09-12T06:58:34;14.20;42.60
4308;DHT22;2167;53.448;9.984;2022-09-12T07:03:26;14.50;43.20
4308;DHT22;2167;53.448;9.984;2022-09-12T07:05:52;14.50;43.10
4308;DHT22;2167;53.448;9.984;2022-09-12T07:08:18;14.60;43.10
4308;DHT22;2167;53.448;9.984;2022-09-12T07:10:43;14.70;43.00
4308;DHT22;2167;53.448;9.984;2022-09-12T07:13:09;14.80;42.80
4308;DHT22;2167;53.448;9.984;2022-09-12T07:15:36;14.90;42.60
4308;DHT22;2167;53.448;9.984;2022-09-12T07:18:02;15.00;41.40
4308;DHT22;2167;53.448;9.984;2022-09-12T07:20:28;15.10;40.90
4308;DHT22;2167;53.448;9.984;2022-09-12T07:22:54;15.20;40.70
4308;DHT22;2167;53.448;9.984;2022-09-12T07:25:19;15.20;40.40
4308;DHT22;2167;53.448;9.984;2022-09-12T07:27:45;15.30;40.40
4308;DHT22;2167;53.448;9.984;2022-09-12T07:30:11;15.30;40.40
4308;DHT22;2167;53.448;9.984;2022-09-12T07:32:36;15.50;40.30
4308;DHT22;2167;53.448;9.984;2022-09-12T07:35:02;15.60;40.50
4308;DHT22;2167;53.448;9.984;2022-09-12T07:37:31;15.60;39.50
4308;DHT22;2167;53.448;9.984;2022-09-12T07:39:56;15.70;38.40
4308;DHT22;2167;53.448;9.984;2022-09-12T07:42:22;15.80;38.10
4308;DHT22;2167;53.448;9.984;2022-09-12T07:44:48;15.90;37.70
4308;DHT22;2167;53.448;9.984;2022-09-12T07:47:15;16.00;37.30
4308;DHT22;2167;53.448;9.984;2022-09-12T07:49:40;16.10;37.20
4308;DHT22;2167;53.448;9.984;2022-09-12T07:52:06;16.20;36.80
4308;DHT22;2167;53.448;9.984;2022-09-12T07:54:32;16.30;36.70
4308;DHT22;2167;53.448;9.984;2022-09-12T07:56:58;16.40;36.90
4308;DHT22;2167;53.448;9.984;2022-09-12T07:59:24;16.50;36.30
4308;DHT22;2167;53.448;9.984;2022-09-12T08:01:50;16.60;36.00
4308;DHT22;2167;53.448;9.984;2022-09-12T08:04:16;16.60;35.50
4308;DHT22;2167;53.448;9.984;2022-09-12T08:06:41;16.80;34.90
4308;DHT22;2167;53.448;9.984;2022-09-12T08:09:07;16.80;33.60
4308;DHT22;2167;53.448;9.984;2022-09-12T08:11:33;16.90;32.60
4308;DHT22;2167;53.448;9.984;2022-09-12T08:13:59;17.10;31.60
4308;DHT22;2167;53.448;9.984;2022-09-12T08:16:28;17.20;31.60
4308;DHT22;2167;53.448;9.984;2022-09-12T08:18:54;17.20;30.20
4308;DHT22;2167;53.448;9.984;2022-09-12T08:21:25;17.40;29.70
4308;DHT22;2167;53.448;9.984;2022-09-12T08:23:53;17.50;29.70
4308;DHT22;2167;53.448;9.984;2022-09-12T08:26:19;17.60;26.70
4308;DHT22;2167;53.448;9.984;2022-09-12T08:28:46;17.70;26.50
4308;DHT22;2167;53.448;9.984;2022-09-12T08:31:13;18.00;24.10
4308;DHT22;2167;53.448;9.984;2022-09-12T08:33:39;18.10;20.80
4308;DHT22;2167;53.448;9.984;2022-09-12T08:38:33;18.30;21.20
4308;DHT22;2167;53.448;9.984;2022-09-12T08:41:40;18.30;20.00
4308;DHT22;2167;53.448;9.984;2022-09-12T08:46:42;18.70;16.70
4308;DHT22;2167;53.448;9.984;2022-09-12T08:49:13;18.80;12.70
4308;DHT22;2167;53.448;9.984;2022-09-12T08:51:40;19.00;14.50
4308;DHT22;2167;53.448;9.984;2022-09-12T08:54:24;19.20;12.10
4308;DHT22;2167;53.448;9.984;2022-09-12T08:56:57;19.30;10.60
4308;DHT22;2167;53.448;9.984;2022-09-12T08:59:23;19.50;9.30
4308;DHT22;2167;53.448;9.984;2022-09-12T09:01:55;19.50;8.10
4308;DHT22;2167;53.448;9.984;2022-09-12T09:26:20;20.40;1.00
4308;DHT22;2167;53.448;9.984;2022-09-12T09:28:57;20.50;1.00
4308;DHT22;2167;53.448;9.984;2022-09-12T09:31:25;20.50;1.00
4308;DHT22;2167;53.448;9.984;2022-09-12T09:33:53;20.60;1.00
4308;DHT22;2167;53.448;9.984;2022-09-12T09:39:14;20.70;1.00
4308;DHT22;2167;53.448;9.984;2022-09-12T09:44:29;20.90;1.00
4308;DHT22;2167;53.448;9.984;2022-09-12T09:46:57;21.00;1.00
4308;DHT22;2167;53.448;9.984;2022-09-12T09:49:29;21.10;1.00
4308;DHT22;2167;53.448;9.984;2022-09-12T09:51:56;21.20;1.00
4308;DHT22;2167;53.448;9.984;2022-09-12T09:54:40;21.20;1.00
4308;DHT22;2167;53.448;9.984;2022-09-12T10:00:20;21.60;1.00
4308;DHT22;2167;53.448;9.984;2022-09-12T10:05:29;21.60;1.00
4308;DHT22;2167;53.448;9.984;2022-09-12T10:07:55;21.60;1.00
4308;DHT22;2167;53.448;9.984;2022-09-12T10:10:22;21.60;1.00
4308;DHT22;2167;53.448;9.984;2022-09-12T10:12:49;21.70;1.00
4308;DHT22;2167;53.448;9.984;2022-09-12T10:15:24;21.80;1.00
4308;DHT22;2167;53.448;9.984;2022-09-12T10:17:53;21.90;1.00
4308;DHT22;2167;53.448;9.984;2022-09-12T10:20:41;21.90;1.00
4308;DHT22;2167;53.448;9.984;2022-09-12T10:23:33;22.00;1.00
4308;DHT22;2167;53.448;9.984;2022-09-12T10:26:04;22.00;1.00
4308;DHT22;2167;53.448;9.984;2022-09-12T10:28:41;22.00;1.00
4308;DHT22;2167;53.448;9.984;2022-09-12T10:31:12;21.90;1.00
4308;DHT22;2167;53.448;9.984;2022-09-12T10:33:44;21.90;1.00
4308;DHT22;2167;53.448;9.984;2022-09-12T10:36:16;21.90;1.00
4308;DHT22;2167;53.448;9.984;2022-09-12T10:38:48;21.90;1.00
4308;DHT22;2167;53.448;9.984;2022-09-12T10:41:15;22.00;1.00
4308;DHT22;2167;53.448;9.984;2022-09-12T10:43:41;22.10;1.00
4308;DHT22;2167;53.448;9.984;2022-09-12T10:48:39;22.10;1.00
4308;DHT22;2167;53.448;9.984;2022-09-12T10:51:04;22.20;1.00
4308;DHT22;2167;53.448;9.984;2022-09-12T10:53:40;22.20;1.00
4308;DHT22;2167;53.448;9.984;2022-09-12T10:56:11;22.30;1.00
4308;DHT22;2167;53.448;9.984;2022-09-12T10:59:17;22.30;1.00
4308;DHT22;2167;53.448;9.984;2022-09-12T11:02:31;22.50;1.00
4308;DHT22;2167;53.448;9.984;2022-09-12T11:07:50;22.60;1.00
4308;DHT22;2167;53.448;9.984;2022-09-12T11:10:26;22.90;1.00
4308;DHT22;2167;53.448;9.984;2022-09-12T11:13:11;23.00;1.00
4308;DHT22;2167;53.448;9.984;2022-09-12T11:16:14;23.20;1.00
4308;DHT22;2167;53.448;9.984;2022-09-12T11:30:06;23.80;1.00
4308;DHT22;2167;53.448;9.984;2022-09-12T11:35:31;24.00;1.00
4308;DHT22;2167;53.448;9.984;2022-09-12T11:38:13;24.10;1.00
4308;DHT22;2167;53.448;9.984;2022-09-12T11:43:40;24.20;1.00
4308;DHT22;2167;53.448;9.984;2022-09-12T11:46:21;24.20;1.00
4308;DHT22;2167;53.448;9.984;2022-09-12T11:48:54;24.20;1.00
4308;DHT22;2167;53.448;9.984;2022-09-12T11:51:39;24.10;1.00
4308;DHT22;2167;53.448;9.984;2022-09-12T11:54:11;24.00;1.00
4308;DHT22;2167;53.448;9.984;2022-09-12T11:56:43;24.00;1.00
4308;DHT22;2167;53.448;9.984;2022-09-12T11:59:58;23.90;1.00
4308;DHT22;2167;53.448;9.984;2022-09-12T12:02:29;23.90;1.00
4308;DHT22;2167;53.448;9.984;2022-09-12T12:05:18;23.90;1.00
4308;DHT22;2167;53.448;9.984;2022-09-12T12:07:54;23.80;1.00
4308;DHT22;2167;53.448;9.984;2022-09-12T12:10:44;23.70;1.00
4308;DHT22;2167;53.448;9.984;2022-09-12T12:15:49;23.70;1.00
4308;DHT22;2167;53.448;9.984;2022-09-12T12:18:27;23.70;1.00
4308;DHT22;2167;53.448;9.984;2022-09-12T12:20:55;23.90;1.00
4308;DHT22;2167;53.448;9.984;2022-09-12T12:23:33;23.90;1.00
4308;DHT22;2167;53.448;9.984;2022-09-12T12:26:01;23.60;1.00
4308;DHT22;2167;53.448;9.984;2022-09-12T12:31:13;23.40;1.00
4308;DHT22;2167;53.448;9.984;2022-09-12T12:36:09;23.20;1.00
4308;DHT22;2167;53.448;9.984;2022-09-12T12:38:39;23.20;1.00
4308;DHT22;2167;53.448;9.984;2022-09-12T12:43:48;23.10;1.00
4308;DHT22;2167;53.448;9.984;2022-09-12T12:46:16;23.00;1.00
4308;DHT22;2167;53.448;9.984;2022-09-12T12:49:08;23.10;1.00
4308;DHT22;2167;53.448;9.984;2022-09-12T12:51:47;23.10;1.00
4308;DHT22;2167;53.448;9.984;2022-09-12T12:59:51;23.10;1.00
4308;DHT22;2167;53.448;9.984;2022-09-12T13:02:39;23.10;1.00
4308;DHT22;2167;53.448;9.984;2022-09-12T13:05:16;23.10;1.00
4308;DHT22;2167;53.448;9.984;2022-09-12T13:07:43;23.20;1.00
4308;DHT22;2167;53.448;9.984;2022-09-12T13:10:21;23.30;1.00
4308;DHT22;2167;53.448;9.984;2022-09-12T13:12:48;23.40;1.00
4308;DHT22;2167;53.448;9.984;2022-09-12T13:18:11;23.50;1.00
4308;DHT22;2167;53.448;9.984;2022-09-12T13:20:46;23.40;1.00
4308;DHT22;2167;53.448;9.984;2022-09-12T13:23:26;23.40;1.00
4308;DHT22;2167;53.448;9.984;2022-09-12T13:25:57;23.50;1.00
4308;DHT22;2167;53.448;9.984;2022-09-12T13:28:23;23.60;1.00
4308;DHT22;2167;53.448;9.984;2022-09-12T13:31:01;23.70;1.00
4308;DHT22;2167;53.448;9.984;2022-09-12T13:33:42;23.90;1.00
4308;DHT22;2167;53.448;9.984;2022-09-12T13:39:16;24.40;1.00
4308;DHT22;2167;53.448;9.984;2022-09-12T13:44:43;25.00;1.00
4308;DHT22;2167;53.448;9.984;2022-09-12T13:47:14;25.10;1.00
4308;DHT22;2167;53.448;9.984;2022-09-12T13:49:41;25.10;1.00
4308;DHT22;2167;53.448;9.984;2022-09-12T13:52:19;25.00;1.00
4308;DHT22;2167;53.448;9.984;2022-09-12T13:54:48;25.00;1.00
4308;DHT22;2167;53.448;9.984;2022-09-12T13:57:30;24.90;1.00
4308;DHT22;2167;53.448;9.984;2022-09-12T13:59:57;24.70;1.00
4308;DHT22;2167;53.448;9.984;2022-09-12T14:02:26;24.40;1.00
4308;DHT22;2167;53.448;9.984;2022-09-12T14:04:53;24.20;1.00
4308;DHT22;2167;53.448;9.984;2022-09-12T14:10:36;23.90;1.00
4308;DHT22;2167;53.448;9.984;2022-09-12T14:13:14;23.70;1.00
4308;DHT22;2167;53.448;9.984;2022-09-12T14:15:44;23.60;1.00
4308;DHT22;2167;53.448;9.984;2022-09-12T14:18:25;23.40;1.00
4308;DHT22;2167;53.448;9.984;2022-09-12T14:20:52;23.40;1.00
4308;DHT22;2167;53.448;9.984;2022-09-12T14:23:26;23.40;1.00
4308;DHT22;2167;53.448;9.984;2022-09-12T14:25:53;23.50;1.00
4308;DHT22;2167;53.448;9.984;2022-09-12T14:28:20;23.40;1.00
4308;DHT22;2167;53.448;9.984;2022-09-12T14:31:05;23.60;1.00
4308;DHT22;2167;53.448;9.984;2022-09-12T14:33:56;23.80;1.00
4308;DHT22;2167;53.448;9.984;2022-09-12T14:39:59;24.20;1.00
4308;DHT22;2167;53.448;9.984;2022-09-12T14:42:17;24.40;1.00
4308;DHT22;2167;53.448;9.984;2022-09-12T14:45:00;24.40;1.00
4308;DHT22;2167;53.448;9.984;2022-09-12T14:47:28;24.50;1.00
4308;DHT22;2167;53.448;9.984;2022-09-12T14:49:57;24.50;1.00
4308;DHT22;2167;53.448;9.984;2022-09-12T14:52:29;24.60;1.00
4308;DHT22;2167;53.448;9.984;2022-09-12T14:57:45;25.00;1.00
4308;DHT22;2167;53.448;9.984;2022-09-12T15:02:36;25.10;1.00
4308;DHT22;2167;53.448;9.984;2022-09-12T15:07:38;24.80;1.00
4308;DHT22;2167;53.448;9.984;2022-09-12T15:10:24;24.80;1.00
4308;DHT22;2167;53.448;9.984;2022-09-12T15:13:12;24.80;1.00
4308;DHT22;2167;53.448;9.984;2022-09-12T15:15:40;24.60;1.00
4308;DHT22;2167;53.448;9.984;2022-09-12T15:18:07;24.50;1.00
4308;DHT22;2167;53.448;9.984;2022-09-12T15:20:39;24.50;1.00
4308;DHT22;2167;53.448;9.984;2022-09-12T15:23:09;24.50;1.00
4308;DHT22;2167;53.448;9.984;2022-09-12T15:25:36;24.50;1.00
4308;DHT22;2167;53.448;9.984;2022-09-12T15:28:10;24.50;1.00
4308;DHT22;2167;53.448;9.984;2022-09-12T15:30:37;24.60;1.00
4308;DHT22;2167;53.448;9.984;2022-09-12T15:33:03;24.60;1.00
4308;DHT22;2167;53.448;9.984;2022-09-12T15:35:31;24.70;1.00
4308;DHT22;2167;53.448;9.984;2022-09-12T15:37:57;24.80;1.00
4308;DHT22;2167;53.448;9.984;2022-09-12T15:40:23;24.60;1.00
4308;DHT22;2167;53.448;9.984;2022-09-12T15:42:50;24.50;1.00
4308;DHT22;2167;53.448;9.984;2022-09-12T15:45:19;24.40;1.00
4308;DHT22;2167;53.448;9.984;2022-09-12T15:47:46;24.40;1.00
4308;DHT22;2167;53.448;9.984;2022-09-12T15:50:13;24.30;1.00
4308;DHT22;2167;53.448;9.984;2022-09-12T15:52:39;24.30;1.00
4308;DHT22;2167;53.448;9.984;2022-09-12T15:55:09;24.30;1.00
4308;DHT22;2167;53.448;9.984;2022-09-12T15:57:36;24.20;1.00
4308;DHT22;2167;53.448;9.984;2022-09-12T16:00:02;24.10;1.00
4308;DHT22;2167;53.448;9.984;2022-09-12T16:02:29;23.90;1.00
4308;DHT22;2167;53.448;9.984;2022-09-12T16:04:55;23.70;1.00
4308;DHT22;2167;53.448;9.984;2022-09-12T16:07:20;23.70;1.00
4308;DHT22;2167;53.448;9.984;2022-09-12T16:09:46;23.60;1.00
4308;DHT22;2167;53.448;9.984;2022-09-12T16:12:12;23.50;1.00
4308;DHT22;2167;53.448;9.984;2022-09-12T16:14:38;23.60;1.00
4308;DHT22;2167;53.448;9.984;2022-09-12T16:17:03;23.60;1.00
4308;DHT22;2167;53.448;9.984;2022-09-12T16:19:29;23.60;1.00
4308;DHT22;2167;53.448;9.984;2022-09-12T16:21:54;23.60;1.00
4308;DHT22;2167;53.448;9.984;2022-09-12T16:24:20;23.50;1.00
4308;DHT22;2167;53.448;9.984;2022-09-12T16:26:46;23.40;1.00
4308;DHT22;2167;53.448;9.984;2022-09-12T16:29:12;23.20;1.00
4308;DHT22;2167;53.448;9.984;2022-09-12T16:31:38;23.10;1.00
4308;DHT22;2167;53.448;9.984;2022-09-12T16:34:04;23.00;1.00
4308;DHT22;2167;53.448;9.984;2022-09-12T16:36:30;22.80;1.00
4308;DHT22;2167;53.448;9.984;2022-09-12T16:38:56;22.80;1.00
4308;DHT22;2167;53.448;9.984;2022-09-12T16:41:23;22.70;1.00
4308;DHT22;2167;53.448;9.984;2022-09-12T16:43:49;22.70;1.00
4308;DHT22;2167;53.448;9.984;2022-09-12T16:46:18;22.50;1.00
4308;DHT22;2167;53.448;9.984;2022-09-12T16:48:46;22.40;1.00
4308;DHT22;2167;53.448;9.984;2022-09-12T16:51:14;22.30;1.00
4308;DHT22;2167;53.448;9.984;2022-09-12T16:53:41;22.20;1.00
4308;DHT22;2167;53.448;9.984;2022-09-12T16:56:07;22.10;1.00
4308;DHT22;2167;53.448;9.984;2022-09-12T16:58:35;22.10;1.00
4308;DHT22;2167;53.448;9.984;2022-09-12T17:01:06;21.90;1.00
4308;DHT22;2167;53.448;9.984;2022-09-12T17:03:32;21.80;1.00
4308;DHT22;2167;53.448;9.984;2022-09-12T17:06:01;21.80;1.00
4308;DHT22;2167;53.448;9.984;2022-09-12T17:08:27;21.70;1.00
4308;DHT22;2167;53.448;9.984;2022-09-12T17:11:01;21.60;1.00
4308;DHT22;2167;53.448;9.984;2022-09-12T17:13:27;21.50;1.00
4308;DHT22;2167;53.448;9.984;2022-09-12T17:15:53;21.40;1.00
4308;DHT22;2167;53.448;9.984;2022-09-12T17:18:20;21.30;1.00
4308;DHT22;2167;53.448;9.984;2022-09-12T17:20:46;21.30;1.60
4308;DHT22;2167;53.448;9.984;2022-09-12T17:23:12;21.20;2.50
4308;DHT22;2167;53.448;9.984;2022-09-12T17:25:37;21.10;4.10
4308;DHT22;2167;53.448;9.984;2022-09-12T17:28:03;21.10;4.70
4308;DHT22;2167;53.448;9.984;2022-09-12T17:30:35;21.00;5.20
4308;DHT22;2167;53.448;9.984;2022-09-12T17:33:01;20.90;3.50
4308;DHT22;2167;53.448;9.984;2022-09-12T17:35:27;20.80;1.70
4308;DHT22;2167;53.448;9.984;2022-09-12T17:37:53;20.80;2.30
4308;DHT22;2167;53.448;9.984;2022-09-12T17:40:19;20.80;1.30
4308;DHT22;2167;53.448;9.984;2022-09-12T17:42:45;20.80;1.50
4308;DHT22;2167;53.448;9.984;2022-09-12T17:45:11;20.70;2.00
4308;DHT22;2167;53.448;9.984;2022-09-12T17:47:40;20.70;3.00
4308;DHT22;2167;53.448;9.984;2022-09-12T17:50:06;20.60;3.90
4308;DHT22;2167;53.448;9.984;2022-09-12T17:52:33;20.60;3.80
4308;DHT22;2167;53.448;9.984;2022-09-12T17:54:59;20.60;4.50
4308;DHT22;2167;53.448;9.984;2022-09-12T17:57:24;20.50;4.00
4308;DHT22;2167;53.448;9.984;2022-09-12T17:59:50;20.50;6.90
4308;DHT22;2167;53.448;9.984;2022-09-12T18:02:16;20.40;7.00
4308;DHT22;2167;53.448;9.984;2022-09-12T18:04:43;20.30;6.90
4308;DHT22;2167;53.448;9.984;2022-09-12T18:07:17;20.20;7.30
4308;DHT22;2167;53.448;9.984;2022-09-12T18:09:44;20.20;8.10
4308;DHT22;2167;53.448;9.984;2022-09-12T18:12:13;20.20;8.00
4308;DHT22;2167;53.448;9.984;2022-09-12T18:14:39;20.10;8.90
4308;DHT22;2167;53.448;9.984;2022-09-12T18:17:05;20.10;8.60
4308;DHT22;2167;53.448;9.984;2022-09-12T18:19:35;20.00;8.90
4308;DHT22;2167;53.448;9.984;2022-09-12T18:22:02;20.00;9.50
4308;DHT22;2167;53.448;9.984;2022-09-12T18:24:28;19.90;10.20
4308;DHT22;2167;53.448;9.984;2022-09-12T18:26:54;19.90;11.00
4308;DHT22;2167;53.448;9.984;2022-09-12T18:29:24;19.90;11.80
4308;DHT22;2167;53.448;9.984;2022-09-12T18:31:52;19.90;13.00
4308;DHT22;2167;53.448;9.984;2022-09-12T18:34:17;19.80;12.30
4308;DHT22;2167;53.448;9.984;2022-09-12T18:36:45;19.70;12.40
4308;DHT22;2167;53.448;9.984;2022-09-12T18:39:11;19.70;13.00
4308;DHT22;2167;53.448;9.984;2022-09-12T18:41:38;19.70;12.40
4308;DHT22;2167;53.448;9.984;2022-09-12T18:44:04;19.60;13.10
4308;DHT22;2167;53.448;9.984;2022-09-12T18:46:31;19.50;13.40
4308;DHT22;2167;53.448;9.984;2022-09-12T18:48:58;19.50;13.20
4308;DHT22;2167;53.448;9.984;2022-09-12T18:51:26;19.40;13.00
4308;DHT22;2167;53.448;9.984;2022-09-12T18:53:57;19.40;12.20
4308;DHT22;2167;53.448;9.984;2022-09-12T18:56:25;19.40;12.20
4308;DHT22;2167;53.448;9.984;2022-09-12T18:58:53;19.30;13.00